Time;durP1;ratioP1;P1;durP2;ratioP2;P2;SDS_P1;SDS_P2;PMS_P1;PMS_P2;Temp;Humidity;BMP_temperature;BMP_pressure;BME280_temperature;BME280_humidity;BME280_pressure;Samples;Min_cycle;Max_cycle;Signal;HPM_P1;HPM_P2
2023/04/18 00:00:25;;;;;;;0.22;0.22;;;;;;;9.96;100.00;99633.78;4994594;28;20022;-69
2023/04/18 00:02:53;;;;;;;0.30;0.30;;;;;;;10.08;100.00;99630.78;4995332;28;20392;-69
2023/04/18 00:05:22;;;;;;;0.20;0.20;;;;;;;10.03;100.00;99630.31;4994272;28;20030;-69
2023/04/18 00:07:50;;;;;;;0.20;0.20;;;;;;;9.92;100.00;99630.13;4994506;28;20034;-69
2023/04/18 00:10:15;;;;;;;0.30;0.30;;;;;;;9.91;100.00;99637.66;4994207;28;20034;-69
2023/04/18 00:12:44;;;;;;;0.30;0.30;;;;;;;9.86;100.00;99626.88;4994602;28;20034;-69
2023/04/18 00:15:10;;;;;;;0.20;0.20;;;;;;;9.86;100.00;99629.63;4994898;28;20430;-69
2023/04/18 00:17:38;;;;;;;0.30;0.30;;;;;;;9.85;100.00;99628.00;4994068;28;20038;-69
2023/04/18 00:20:11;;;;;;;0.20;0.20;;;;;;;9.89;100.00;99620.53;4994537;28;20038;-70
2023/04/18 00:22:45;;;;;;;0.30;0.30;;;;;;;9.85;100.00;99622.47;4995274;28;20031;-69
2023/04/18 00:25:15;;;;;;;0.30;0.30;;;;;;;9.91;100.00;99615.44;4994742;28;20458;-69
2023/04/18 00:27:41;;;;;;;0.20;0.20;;;;;;;9.87;100.00;99619.31;4993922;28;20121;-69
2023/04/18 00:30:07;;;;;;;0.30;0.30;;;;;;;9.82;100.00;99619.63;4993397;28;20093;-69
2023/04/18 00:32:33;;;;;;;0.20;0.20;;;;;;;9.90;100.00;99624.13;4993940;28;20491;-69
2023/04/18 00:34:59;;;;;;;0.30;0.30;;;;;;;10.03;100.00;99625.53;4993745;28;20030;-69
2023/04/18 00:37:24;;;;;;;0.25;0.25;;;;;;;9.96;100.00;99629.03;4994019;28;20042;-69
2023/04/18 00:39:52;;;;;;;0.20;0.20;;;;;;;9.92;100.00;99621.78;4993657;28;20034;-69
2023/04/18 00:42:21;;;;;;;0.20;0.20;;;;;;;9.90;100.00;99627.69;4993887;28;20385;-69
2023/04/18 00:44:48;;;;;;;0.20;0.20;;;;;;;9.87;100.00;99624.88;4995407;28;20030;-69
2023/04/18 00:47:16;;;;;;;0.30;0.30;;;;;;;9.84;100.00;99628.38;4993870;28;20030;-69
2023/04/18 00:49:49;;;;;;;0.30;0.30;;;;;;;9.74;100.00;99624.25;4994095;28;20026;-69
2023/04/18 00:52:16;;;;;;;0.30;0.30;;;;;;;9.70;100.00;99617.84;4993486;28;20061;-69
2023/04/18 00:54:45;;;;;;;0.20;0.20;;;;;;;9.64;100.00;99614.59;4993773;28;20092;-69
2023/04/18 00:57:11;;;;;;;0.30;0.30;;;;;;;9.63;100.00;99615.72;4993943;28;20126;-69
2023/04/18 00:59:40;;;;;;;0.20;0.20;;;;;;;9.68;100.00;99603.50;4993902;28;20457;-69
2023/04/18 01:02:11;;;;;;;0.20;0.20;;;;;;;9.65;100.00;99615.38;4993658;28;20131;-69
2023/04/18 01:04:37;;;;;;;0.30;0.30;;;;;;;9.63;100.00;99612.16;4994082;28;20342;-69
2023/04/18 01:07:03;;;;;;;0.20;0.20;;;;;;;9.61;100.00;99606.97;4993299;28;20108;-68
2023/04/18 01:09:29;;;;;;;0.30;0.30;;;;;;;9.63;100.00;99598.28;4993880;28;20479;-69
2023/04/18 01:12:00;;;;;;;0.20;0.20;;;;;;;9.59;100.00;99608.53;4992837;28;20030;-69
2023/04/18 01:14:28;;;;;;;0.20;0.20;;;;;;;9.59;100.00;99605.75;4993380;28;20033;-69
2023/04/18 01:16:58;;;;;;;0.20;0.20;;;;;;;9.52;100.00;99602.84;4994291;28;20030;-69
2023/04/18 01:19:26;;;;;;;0.30;0.30;;;;;;;9.52;100.00;99605.63;4994464;28;20117;-69
2023/04/18 01:21:53;;;;;;;0.20;0.20;;;;;;;9.44;100.00;99602.72;4993127;28;20022;-68
2023/04/18 01:24:24;;;;;;;0.20;0.20;;;;;;;9.48;100.00;99590.84;4993386;28;20380;-68
2023/04/18 01:26:49;;;;;;;0.20;0.20;;;;;;;9.50;100.00;99597.66;4993151;28;20019;-68
2023/04/18 01:29:15;;;;;;;0.20;0.20;;;;;;;9.45;100.00;99596.00;4993228;28;20057;-69
2023/04/18 01:31:40;;;;;;;0.25;0.25;;;;;;;9.39;100.00;99594.69;4994304;28;20039;-69
2023/04/18 01:34:07;;;;;;;0.30;0.30;;;;;;;9.20;100.00;99569.75;4995333;28;20393;-70
2023/04/18 01:36:34;;;;;;;0.20;0.20;;;;;;;9.20;100.00;99569.75;4993882;28;20026;-68
2023/04/18 01:39:00;;;;;;;0.20;0.20;;;;;;;9.39;100.00;99589.16;4993227;28;20030;-68
2023/04/18 01:41:28;;;;;;;0.20;0.20;;;;;;;9.40;100.00;99599.06;4993547;28;20027;-68
2023/04/18 01:43:56;;;;;;;0.20;0.20;;;;;;;9.35;100.00;99593.81;4993939;28;20073;-69
2023/04/18 01:46:21;;;;;;;0.25;0.25;;;;;;;9.41;100.00;99597.91;4993164;28;20041;-68
2023/04/18 01:48:49;;;;;;;0.20;0.20;;;;;;;9.10;100.00;99545.38;4993399;28;20034;-69
2023/04/18 01:51:17;;;;;;;0.30;0.30;;;;;;;9.41;100.00;99589.56;4992973;28;20076;-69
2023/04/18 01:53:42;;;;;;;0.20;0.20;;;;;;;9.35;100.00;99591.03;4992827;28;20520;-69
2023/04/18 01:56:13;;;;;;;0.20;0.20;;;;;;;9.33;100.00;99595.38;4992929;28;20121;-69
2023/04/18 01:58:40;;;;;;;0.20;0.20;;;;;;;9.25;100.00;99594.44;4993347;28;20041;-68
2023/04/18 02:01:08;;;;;;;0.30;0.30;;;;;;;9.26;100.00;99593.25;4993108;28;20078;-68
2023/04/18 02:03:36;;;;;;;0.20;0.20;;;;;;;9.30;100.00;99587.78;4994568;28;20035;-68
2023/04/18 02:06:04;;;;;;;0.30;0.30;;;;;;;9.23;100.00;99574.56;4992710;28;20482;-68
2023/04/18 02:08:31;;;;;;;0.20;0.20;;;;;;;9.27;100.00;99605.97;4992691;28;20026;-68
2023/04/18 02:11:00;;;;;;;0.30;0.30;;;;;;;9.01;100.00;99573.38;4992908;28;20054;-68
2023/04/18 02:13:28;;;;;;;0.20;0.20;;;;;;;9.20;100.00;99608.59;4993040;28;20041;-68
2023/04/18 02:15:54;;;;;;;0.30;0.30;;;;;;;9.17;100.00;99609.34;4992595;28;20551;-68
2023/04/18 02:18:25;;;;;;;0.28;0.28;;;;;;;9.15;100.00;99608.91;4992897;28;20038;-68
2023/04/18 02:20:51;;;;;;;0.30;0.30;;;;;;;9.18;100.00;99606.19;4992906;28;20050;-68
2023/04/18 02:23:19;;;;;;;0.30;0.30;;;;;;;9.20;100.00;99605.81;4994146;28;20384;-68
2023/04/18 02:25:45;;;;;;;0.20;0.20;;;;;;;9.18;100.00;99605.41;4996372;28;20030;-68
2023/04/18 02:28:10;;;;;;;0.20;0.20;;;;;;;9.22;100.00;99592.41;4996398;28;20046;-69
2023/04/18 02:30:36;;;;;;;0.30;0.30;;;;;;;9.33;100.00;99601.72;4999574;28;20108;-68
2023/04/18 02:33:01;;;;;;;0.20;0.20;;;;;;;9.18;100.00;99592.31;4999255;28;20030;-68
2023/04/18 02:35:30;;;;;;;0.20;0.20;;;;;;;9.18;100.00;99595.09;4999490;28;20116;-68
2023/04/18 02:37:58;;;;;;;0.30;0.30;;;;;;;9.13;100.00;99594.59;4999174;28;20042;-68
2023/04/18 02:40:26;;;;;;;0.30;0.30;;;;;;;9.19;100.00;99601.44;4999385;28;20033;-68
2023/04/18 02:42:54;;;;;;;0.30;0.30;;;;;;;9.24;100.00;99592.81;4999029;28;20030;-68
2023/04/18 02:45:20;;;;;;;0.20;0.20;;;;;;;9.20;100.00;99591.94;4999044;28;20029;-68
2023/04/18 02:47:48;;;;;;;0.20;0.20;;;;;;;9.24;100.00;99598.38;4998985;28;20037;-68
2023/04/18 02:50:13;;;;;;;0.30;0.30;;;;;;;9.23;100.00;99599.56;4998936;28;20030;-68
2023/04/18 02:52:39;;;;;;;0.20;0.20;;;;;;;9.22;100.00;99592.41;4999463;28;20038;-68
2023/04/18 02:55:05;;;;;;;0.20;0.20;;;;;;;9.26;100.00;99601.56;4999132;28;20030;-68
2023/04/18 02:57:32;;;;;;;0.20;0.20;;;;;;;9.28;100.00;99598.44;4998820;28;20497;-68
2023/04/18 02:59:58;;;;;;;0.28;0.28;;;;;;;9.34;100.00;99597.78;4999282;28;20084;-68
2023/04/18 03:02:26;;;;;;;0.20;0.20;;;;;;;9.30;100.00;99588.56;4999322;28;20532;-68
2023/04/18 03:04:55;;;;;;;0.30;0.30;;;;;;;9.29;100.00;99595.31;4998995;28;20124;-68
2023/04/18 03:07:20;;;;;;;0.20;0.20;;;;;;;9.27;100.00;99597.66;5016237;28;20464;-68
2023/04/18 03:09:50;;;;;;;0.20;0.20;;;;;;;9.02;100.00;99557.53;4998813;28;20025;-68
2023/04/18 03:12:19;;;;;;;0.30;0.30;;;;;;;9.22;100.00;99595.19;4998491;28;20038;-68
2023/04/18 03:14:44;;;;;;;0.20;0.20;;;;;;;9.31;100.00;99601.28;4998682;28;20053;-68
2023/04/18 03:17:13;;;;;;;0.30;0.30;;;;;;;9.25;100.00;99588.06;4998794;28;20495;-68
2023/04/18 03:19:39;;;;;;;0.20;0.20;;;;;;;9.25;100.00;99594.44;4998630;28;20026;-68
2023/04/18 03:22:04;;;;;;;0.20;0.20;;;;;;;9.30;100.00;99590.53;4998335;28;20442;-68
2023/04/18 03:24:35;;;;;;;0.20;0.20;;;;;;;9.29;100.00;99588.94;4998837;28;20069;-68
2023/04/18 03:27:03;;;;;;;0.20;0.20;;;;;;;9.23;100.00;99601.53;4998311;28;20476;-69
2023/04/18 03:29:31;;;;;;;0.30;0.30;;;;;;;9.26;100.00;99592.44;4998016;28;20049;-69
2023/04/18 03:31:58;;;;;;;0.20;0.20;;;;;;;9.21;100.00;99593.56;4998719;28;20065;-69
2023/04/18 03:34:24;;;;;;;0.20;0.20;;;;;;;9.28;100.00;99593.69;4997381;28;20030;-69
2023/04/18 03:36:53;;;;;;;0.20;0.20;;;;;;;9.38;100.00;99603.41;4998110;28;20076;-69
2023/04/18 03:39:20;;;;;;;0.20;0.20;;;;;;;9.30;100.00;99602.44;4998042;28;20037;-69
2023/04/18 03:41:48;;;;;;;0.20;0.20;;;;;;;9.34;100.00;99606.09;4997957;28;20030;-69
2023/04/18 03:44:19;;;;;;;0.20;0.20;;;;;;;9.39;100.00;99605.81;4998245;28;20484;-69
2023/04/18 03:46:45;;;;;;;0.20;0.20;;;;;;;9.30;100.00;99608.00;4998167;28;20037;-69
2023/04/18 03:49:10;;;;;;;0.20;0.20;;;;;;;9.35;100.00;99616.03;4998098;28;20123;-69
2023/04/18 03:51:46;;;;;;;0.28;0.28;;;;;;;9.44;100.00;99618.59;4997861;28;20030;-69
2023/04/18 03:54:13;;;;;;;0.28;0.28;;;;;;;9.38;100.00;99609.75;4997943;28;20381;-69
2023/04/18 03:56:42;;;;;;;0.20;0.20;;;;;;;9.31;100.00;99614.34;4997714;28;20030;-70
2023/04/18 03:59:10;;;;;;;0.20;0.20;;;;;;;9.34;100.00;99621.97;4999183;28;20045;-70
2023/04/18 04:01:39;;;;;;;0.20;0.20;;;;;;;9.31;100.00;99626.25;4999049;28;20022;-69
2023/04/18 04:04:04;;;;;;;0.20;0.20;;;;;;;9.38;100.00;99620.88;4997657;28;20100;-69
2023/04/18 04:06:32;;;;;;;0.20;0.20;;;;;;;9.40;100.00;99626.84;4997523;28;20116;-69
2023/04/18 04:09:03;;;;;;;0.20;0.20;;;;;;;9.42;100.00;99624.47;4997729;28;20030;-69
2023/04/18 04:11:32;;;;;;;0.20;0.20;;;;;;;9.34;100.00;99624.75;4998001;28;20360;-69
2023/04/18 04:14:03;;;;;;;0.20;0.20;;;;;;;9.36;100.00;99620.41;4997299;28;20038;-69
2023/04/18 04:16:33;;;;;;;0.20;0.20;;;;;;;9.37;100.00;99619.22;4997436;28;20026;-69
2023/04/18 04:18:58;;;;;;;0.20;0.20;;;;;;;9.38;100.00;99628.38;5015961;28;20044;-70
2023/04/18 04:21:25;;;;;;;0.20;0.20;;;;;;;9.38;100.00;99625.63;4998649;28;20069;-69
2023/04/18 04:23:54;;;;;;;0.30;0.30;;;;;;;9.35;100.00;99629.91;4997582;28;20044;-69
2023/04/18 04:26:25;;;;;;;0.20;0.20;;;;;;;9.37;100.00;99635.88;4997099;28;20030;-69
2023/04/18 04:28:53;;;;;;;0.22;0.22;;;;;;;9.37;100.00;99632.31;4996838;28;20485;-69
2023/04/18 04:31:23;;;;;;;0.20;0.20;;;;;;;9.39;100.00;99625.25;4997314;28;20476;-69
2023/04/18 04:33:54;;;;;;;0.20;0.20;;;;;;;9.37;100.00;99635.88;4996934;28;20125;-69
2023/04/18 04:36:21;;;;;;;0.20;0.20;;;;;;;9.48;100.00;99640.84;4997547;28;20423;-69
2023/04/18 04:38:51;;;;;;;0.20;0.20;;;;;;;9.49;100.00;99634.94;4997192;28;20026;-69
2023/04/18 04:41:21;;;;;;;0.20;0.20;;;;;;;9.50;100.00;99642.09;4996919;28;20033;-69
2023/04/18 04:43:47;;;;;;;0.20;0.20;;;;;;;9.58;100.00;99645.78;4997152;28;20120;-69
2023/04/18 04:46:15;;;;;;;0.20;0.20;;;;;;;9.64;100.00;99649.88;4996006;28;20552;-69
2023/04/18 04:48:42;;;;;;;0.30;0.30;;;;;;;9.76;100.00;99646.94;4997105;28;20103;-69
2023/04/18 04:51:13;;;;;;;0.20;0.20;;;;;;;9.77;100.00;99642.97;4997280;28;20022;-69
2023/04/18 04:53:40;;;;;;;0.20;0.20;;;;;;;9.74;100.00;99646.47;4996588;28;20461;-69
2023/04/18 04:56:14;;;;;;;0.30;0.30;;;;;;;9.83;100.00;99641.47;4996949;28;20041;-68
2023/04/18 04:58:44;;;;;;;0.20;0.20;;;;;;;9.84;100.00;99645.88;4996613;28;20037;-68
2023/04/18 05:01:12;;;;;;;0.20;0.20;;;;;;;9.89;100.00;99644.75;4996715;28;20042;-68
2023/04/18 05:03:38;;;;;;;0.30;0.30;;;;;;;9.89;100.00;99645.56;4997105;28;20033;-68
2023/04/18 05:06:04;;;;;;;0.20;0.20;;;;;;;9.94;100.00;99653.56;4997077;28;20036;-68
2023/04/18 05:08:30;;;;;;;0.20;0.20;;;;;;;9.99;100.00;99655.25;4996704;28;20033;-68
2023/04/18 05:10:57;;;;;;;0.30;0.30;;;;;;;10.07;100.00;99661.75;4996488;28;20245;-69
2023/04/18 05:13:25;;;;;;;0.20;0.20;;;;;;;10.14;100.00;99671.00;4996411;28;20460;-68
2023/04/18 05:15:53;;;;;;;0.20;0.20;;;;;;;10.15;100.00;99658.69;4996473;28;20032;-69
2023/04/18 05:18:20;;;;;;;0.20;0.20;;;;;;;10.22;100.00;99669.91;4996478;28;20033;-69
2023/04/18 05:20:48;;;;;;;0.20;0.20;;;;;;;10.25;100.00;99657.28;4997225;28;20021;-69
2023/04/18 05:23:13;;;;;;;0.20;0.20;;;;;;;10.30;100.00;99670.06;4996283;28;20469;-69
2023/04/18 05:25:41;;;;;;;0.20;0.20;;;;;;;10.32;100.00;99674.06;4996332;28;20029;-68
2023/04/18 05:28:09;;;;;;;0.20;0.20;;;;;;;10.39;100.00;99676.19;4995797;28;20128;-68
2023/04/18 05:30:35;;;;;;;0.20;0.20;;;;;;;10.43;100.00;99672.25;4996322;28;20037;-69
2023/04/18 05:33:05;;;;;;;0.20;0.20;;;;;;;10.46;100.00;99679.06;4996467;28;20038;-68
2023/04/18 05:35:33;;;;;;;0.20;0.20;;;;;;;10.38;100.00;99649.53;4995943;28;20095;-68
2023/04/18 05:37:59;;;;;;;0.20;0.20;;;;;;;10.59;100.00;99683.22;4996507;28;20041;-69
2023/04/18 05:40:26;;;;;;;0.20;0.20;;;;;;;10.62;100.00;99678.91;4996226;28;20038;-69
2023/04/18 05:42:51;;;;;;;0.20;0.20;;;;;;;10.67;100.00;99686.94;4996207;28;20030;-69
2023/04/18 05:45:17;;;;;;;0.20;0.20;;;;;;;10.71;100.00;99685.81;4996304;28;20037;-68
2023/04/18 05:47:45;;;;;;;0.25;0.25;;;;;;;10.84;100.00;99675.25;4996183;28;20030;-68
2023/04/18 05:50:10;;;;;;;0.30;0.30;;;;;;;10.96;100.00;99688.13;4996391;28;20022;-68
2023/04/18 05:52:39;;;;;;;0.20;0.20;;;;;;;11.05;100.00;99685.06;4995980;28;20036;-68
2023/04/18 05:55:08;;;;;;;0.20;0.20;;;;;;;11.18;100.00;99686.41;4996711;28;20058;-68
2023/04/18 05:57:34;;;;;;;0.20;0.20;;;;;;;11.30;100.00;99682.59;4996636;28;20037;-68
2023/04/18 06:00:00;;;;;;;0.20;0.20;;;;;;;11.41;100.00;99684.31;5000438;28;20041;-68
2023/04/18 06:02:25;;;;;;;0.20;0.20;;;;;;;11.48;100.00;99683.59;4999896;28;20522;-68
2023/04/18 06:04:55;;;;;;;0.20;0.20;;;;;;;11.59;99.83;99690.06;4999866;28;20072;-68
2023/04/18 06:07:23;;;;;;;0.20;0.20;;;;;;;11.74;98.54;99691.03;4999797;28;20033;-68
2023/04/18 06:09:52;;;;;;;0.20;0.20;;;;;;;11.87;97.86;99688.78;4999712;28;20480;-68
2023/04/18 06:12:23;;;;;;;0.20;0.20;;;;;;;12.16;98.50;99706.59;5017320;28;20061;-68
2023/04/18 06:14:51;;;;;;;0.28;0.28;;;;;;;12.35;96.06;99703.56;5000150;28;20030;-69
2023/04/18 06:17:20;;;;;;;0.20;0.20;;;;;;;12.49;95.89;99698.09;4999858;28;20029;-69
2023/04/18 06:19:47;;;;;;;0.20;0.20;;;;;;;12.66;93.02;99701.38;5000115;28;20129;-69
2023/04/18 06:22:16;;;;;;;0.20;0.20;;;;;;;12.79;92.59;99702.69;5017209;28;20064;-68
2023/04/18 06:24:41;;;;;;;0.20;0.20;;;;;;;12.85;89.61;99699.13;5000421;28;20026;-69
2023/04/18 06:27:07;;;;;;;0.20;0.20;;;;;;;13.06;90.57;99700.44;5004643;28;20037;-70
2023/04/18 06:29:36;;;;;;;0.22;0.22;;;;;;;13.16;88.20;99707.28;4997163;28;20520;-69
2023/04/18 06:32:02;;;;;;;0.20;0.20;;;;;;;13.31;86.87;99704.16;4996078;28;20077;-69
2023/04/18 06:34:30;;;;;;;0.20;0.20;;;;;;;13.43;83.58;99696.66;4996746;28;20034;-68
2023/04/18 06:36:55;;;;;;;0.20;0.20;;;;;;;13.60;83.27;99698.69;4995985;28;20034;-68
2023/04/18 06:39:21;;;;;;;0.20;0.20;;;;;;;13.72;80.52;99711.50;4995943;28;20096;-69
2023/04/18 06:41:48;;;;;;;0.20;0.20;;;;;;;13.57;79.95;99710.66;4996139;28;20101;-69
2023/04/18 06:44:13;;;;;;;0.20;0.20;;;;;;;13.62;79.92;99711.06;4997650;28;20117;-68
2023/04/18 06:46:39;;;;;;;0.20;0.20;;;;;;;13.63;77.84;99704.31;4995844;28;20122;-68
2023/04/18 06:49:04;;;;;;;0.20;0.20;;;;;;;13.58;77.04;99709.44;4996577;28;20058;-68
2023/04/18 06:51:32;;;;;;;0.20;0.20;;;;;;;13.68;76.15;99711.47;4995725;28;20030;-68
2023/04/18 06:53:57;;;;;;;0.20;0.20;;;;;;;13.70;74.26;99708.31;4996162;28;20030;-68
2023/04/18 06:56:23;;;;;;;0.20;0.20;;;;;;;13.78;75.26;99709.91;4995923;28;20392;-68
2023/04/18 06:58:51;;;;;;;0.20;0.20;;;;;;;13.79;75.97;99705.91;4995858;28;20037;-68
2023/04/18 07:01:18;;;;;;;0.20;0.20;;;;;;;13.98;75.70;99705.56;4995787;28;20030;-68
2023/04/18 07:03:46;;;;;;;0.20;0.20;;;;;;;13.87;76.34;99707.53;4996770;28;20038;-68
2023/04/18 07:06:14;;;;;;;0.20;0.20;;;;;;;13.88;75.87;99700.75;4995422;28;20064;-68
2023/04/18 07:08:41;;;;;;;0.20;0.20;;;;;;;14.27;75.16;99719.56;4995660;28;20088;-68
2023/04/18 07:11:07;;;;;;;0.20;0.20;;;;;;;14.15;73.91;99707.56;4994672;28;20022;-68
2023/04/18 07:13:38;;;;;;;0.20;0.20;;;;;;;14.24;74.72;99703.59;4996014;28;20037;-68
2023/04/18 07:16:06;;;;;;;0.20;0.20;;;;;;;14.46;74.73;99709.97;4995237;28;20117;-69
2023/04/18 07:18:32;;;;;;;0.20;0.20;;;;;;;14.53;73.50;99722.00;4995162;28;20560;-69
2023/04/18 07:21:02;;;;;;;0.20;0.20;;;;;;;14.45;72.79;99717.59;4995141;28;20117;-68
2023/04/18 07:23:33;;;;;;;0.20;0.20;;;;;;;14.66;72.61;99714.78;4995541;28;20030;-69
2023/04/18 07:26:01;;;;;;;0.20;0.20;;;;;;;14.71;71.76;99722.00;4995156;28;20050;-68
2023/04/18 07:28:28;;;;;;;0.20;0.20;;;;;;;15.08;70.56;99729.91;4997512;28;20072;-68
2023/04/18 07:30:55;;;;;;;0.20;0.20;;;;;;;15.09;68.35;99730.72;4998058;28;20075;-68
2023/04/18 07:33:24;;;;;;;0.20;0.20;;;;;;;15.31;69.78;99725.84;5015849;28;20028;-68
2023/04/18 07:35:52;;;;;;;0.20;0.20;;;;;;;15.57;67.78;99725.34;4998331;28;20026;-69
2023/04/18 07:38:25;;;;;;;0.20;0.20;;;;;;;15.69;65.33;99729.72;4998261;28;20469;-68
2023/04/18 07:41:00;;;;;;;0.20;0.20;;;;;;;15.73;65.79;99735.31;4998158;28;20026;-69
2023/04/18 07:43:26;;;;;;;0.20;0.20;;;;;;;15.77;65.84;99730.47;4997815;28;20124;-68
2023/04/18 07:45:52;;;;;;;0.30;0.30;;;;;;;15.85;64.69;99732.03;4997735;28;20117;-68
2023/04/18 07:48:21;;;;;;;0.20;0.20;;;;;;;16.01;64.07;99740.75;4997924;28;20053;-68
2023/04/18 07:50:49;;;;;;;0.20;0.20;;;;;;;16.37;64.40;99734.88;5015295;28;20040;-68
2023/04/18 07:53:15;;;;;;;0.20;0.20;;;;;;;16.60;61.78;99743.50;4998099;28;20042;-68
2023/04/18 07:55:42;;;;;;;0.20;0.20;;;;;;;16.17;62.29;99743.03;4997630;28;20030;-68
2023/04/18 07:58:08;;;;;;;0.20;0.20;;;;;;;16.43;63.93;99738.84;4998157;28;20034;-68
2023/04/18 08:00:37;;;;;;;0.20;0.20;;;;;;;16.79;62.16;99749.81;4998032;28;20044;-69
2023/04/18 08:03:14;;;;;;;0.20;0.20;;;;;;;17.25;60.46;99749.31;4997778;28;20073;-68
2023/04/18 08:05:43;;;;;;;0.20;0.20;;;;;;;17.50;58.78;99757.47;4997451;28;20037;-68
2023/04/18 08:08:11;;;;;;;0.20;0.20;;;;;;;17.82;57.61;99756.31;4997426;28;20134;-68
2023/04/18 08:10:41;;;;;;;0.20;0.20;;;;;;;17.48;57.82;99757.09;4997411;28;20040;-68
2023/04/18 08:13:11;;;;;;;0.20;0.20;;;;;;;17.72;57.00;99767.25;4997171;28;20121;-68
2023/04/18 08:15:37;;;;;;;0.20;0.20;;;;;;;18.06;55.86;99764.41;4997155;28;20100;-68
2023/04/18 08:18:05;;;;;;;0.20;0.20;;;;;;;18.18;56.45;99765.84;4997094;28;20033;-67
2023/04/18 08:20:39;;;;;;;0.20;0.20;;;;;;;18.50;53.96;99776.63;4997041;28;20030;-67
2023/04/18 08:23:07;;;;;;;0.20;0.20;;;;;;;18.87;53.44;99765.59;4997038;28;20034;-67
2023/04/18 08:25:34;;;;;;;0.20;0.20;;;;;;;19.38;51.08;99770.63;4997847;28;20029;-66
2023/04/18 08:28:19;;;;;;;0.20;0.20;;;;;;;19.49;49.33;99773.25;4996993;28;20030;-67
2023/04/18 08:30:47;;;;;;;0.20;0.20;;;;;;;19.97;47.55;99774.69;4974718;28;20058;-67
2023/04/18 08:33:14;;;;;;;0.20;0.20;;;;;;;20.41;46.50;99769.69;4975468;28;20462;-67
2023/04/18 08:35:45;;;;;;;0.20;0.20;;;;;;;20.69;45.70;99771.03;4974354;28;20030;-67
2023/04/18 08:38:10;;;;;;;0.20;0.20;;;;;;;20.44;45.17;99770.81;4974007;28;20031;-67
2023/04/18 08:40:36;;;;;;;0.20;0.20;;;;;;;19.89;47.34;99778.91;4974219;28;20033;-67
2023/04/18 08:43:08;;;;;;;0.20;0.20;;;;;;;19.74;47.11;99778.41;4974578;28;20429;-67
2023/04/18 08:45:37;;;;;;;0.20;0.20;;;;;;;19.67;46.70;99772.94;4974232;28;20037;-67
2023/04/18 08:48:06;;;;;;;0.20;0.20;;;;;;;20.84;45.63;99779.97;4975796;28;20038;-67
2023/04/18 08:50:32;;;;;;;0.20;0.20;;;;;;;21.36;42.71;99770.50;4975497;28;20050;-68
2023/04/18 08:53:03;;;;;;;0.20;0.20;;;;;;;21.29;41.83;99779.97;4974033;28;20477;-67
2023/04/18 08:55:34;;;;;;;0.20;0.20;;;;;;;21.27;42.52;99781.66;4973574;28;20050;-67
2023/04/18 08:58:06;;;;;;;0.20;0.20;;;;;;;21.05;41.29;99781.44;4975160;28;20027;-67
2023/04/18 09:00:35;;;;;;;0.20;0.20;;;;;;;20.60;42.87;99791.44;4974138;28;20057;-67
2023/04/18 09:03:03;;;;;;;0.20;0.20;;;;;;;20.06;43.65;99754.34;4973782;28;20073;-67
2023/04/18 09:05:31;;;;;;;0.20;0.20;;;;;;;20.17;44.19;99783.13;4973688;28;20026;-67
2023/04/18 09:07:56;;;;;;;0.20;0.20;;;;;;;20.56;44.00;99784.28;4973794;28;20477;-67
2023/04/18 09:10:33;;;;;;;0.20;0.20;;;;;;;20.23;43.29;99792.69;4973726;28;20030;-67
2023/04/18 09:13:01;;;;;;;0.20;0.20;;;;;;;20.02;44.88;99791.13;4975200;28;20038;-67
2023/04/18 09:15:30;;;;;;;0.20;0.20;;;;;;;19.75;44.94;99790.50;4973952;28;20522;-67
2023/04/18 09:18:00;;;;;;;0.20;0.20;;;;;;;20.12;45.36;99786.47;4973610;28;20475;-67
2023/04/18 09:20:39;;;;;;;0.20;0.20;;;;;;;19.84;45.45;99797.16;4973567;28;20019;-67
2023/04/18 09:23:09;;;;;;;0.20;0.20;;;;;;;19.48;45.95;99787.78;4974039;28;20373;-67
2023/04/18 09:25:43;;;;;;;0.20;0.20;;;;;;;19.36;46.92;99770.28;4973580;28;20496;-68
2023/04/18 09:28:22;;;;;;;0.20;0.20;;;;;;;20.24;45.17;99794.28;4973407;28;20121;-67
2023/04/18 09:30:51;;;;;;;0.20;0.20;;;;;;;20.71;43.76;99794.00;5013763;28;20030;-67
2023/04/18 09:33:26;;;;;;;0.20;0.20;;;;;;;20.54;43.79;99801.69;4998007;28;20049;-67
2023/04/18 09:35:56;;;;;;;0.20;0.20;;;;;;;20.28;44.68;99800.63;5000087;28;20032;-66
2023/04/18 09:38:39;;;;;;;0.10;0.10;;;;;;;20.00;44.64;99802.06;4999937;28;20026;-67
2023/04/18 09:41:09;;;;;;;0.20;0.20;;;;;;;19.32;45.09;99806.22;5000464;28;20372;-67
2023/04/18 09:43:37;;;;;;;0.20;0.20;;;;;;;18.93;45.43;99806.13;5017963;28;20380;-67
2023/04/18 09:46:06;;;;;;;0.20;0.20;;;;;;;18.51;45.21;99802.75;5000139;28;20026;-67
2023/04/18 09:48:32;;;;;;;0.20;0.20;;;;;;;18.20;45.99;99802.00;5000199;28;20038;-67
2023/04/18 09:51:03;;;;;;;0.20;0.20;;;;;;;18.39;46.73;99806.97;4999843;28;20038;-67
2023/04/18 09:53:29;;;;;;;0.20;0.20;;;;;;;17.77;47.47;99797.75;5000197;28;20143;-67
2023/04/18 09:55:58;;;;;;;0.20;0.20;;;;;;;18.10;48.08;99802.97;4999799;28;20050;-67
2023/04/18 09:58:27;;;;;;;0.20;0.20;;;;;;;18.48;50.10;99800.78;5000236;28;20048;-67
2023/04/18 10:01:12;;;;;;;0.20;0.20;;;;;;;18.57;51.65;99796.22;5000175;28;20095;-67
2023/04/18 10:03:45;;;;;;;0.20;0.20;;;;;;;18.91;50.81;99788.84;4999492;28;20120;-67
2023/04/18 10:06:15;;;;;;;0.20;0.20;;;;;;;18.84;50.95;99793.38;4999313;28;20026;-67
2023/04/18 10:08:44;;;;;;;0.20;0.20;;;;;;;19.04;51.09;99792.66;4999535;28;20038;-68
2023/04/18 10:11:10;;;;;;;0.20;0.20;;;;;;;18.74;52.37;99794.34;4999761;28;20465;-67
2023/04/18 10:13:40;;;;;;;0.20;0.20;;;;;;;18.36;54.70;99799.34;4999437;28;20030;-68
2023/04/18 10:16:09;;;;;;;0.20;0.20;;;;;;;18.41;54.60;99796.06;5000030;28;20072;-67
2023/04/18 10:18:37;;;;;;;0.20;0.20;;;;;;;18.19;56.51;99800.44;4999896;28;20127;-68
2023/04/18 10:21:03;;;;;;;0.20;0.20;;;;;;;18.10;54.33;99803.75;4999533;28;20060;-68
2023/04/18 10:23:36;;;;;;;0.20;0.20;;;;;;;18.16;54.21;99790.78;4999478;28;20058;-68
2023/04/18 10:26:09;;;;;;;0.20;0.20;;;;;;;17.89;55.18;99801.22;4999208;28;20076;-68
2023/04/18 10:28:58;;;;;;;0.20;0.20;;;;;;;18.17;53.77;99803.66;4995764;28;20050;-68
2023/04/18 10:31:37;;;;;;;0.20;0.20;;;;;;;18.41;54.65;99800.91;4996561;28;20059;-68
2023/04/18 10:34:09;;;;;;;0.20;0.20;;;;;;;18.62;56.63;99803.38;4995935;28;20093;-67
2023/04/18 10:36:35;;;;;;;0.20;0.20;;;;;;;18.24;56.09;99797.13;4997245;28;20429;-67
2023/04/18 10:39:20;;;;;;;0.20;0.20;;;;;;;17.85;52.99;99801.28;4995900;28;20085;-67
2023/04/18 10:41:50;;;;;;;0.20;0.20;;;;;;;17.99;55.05;99803.09;4995831;28;20026;-67
2023/04/18 10:44:17;;;;;;;0.20;0.20;;;;;;;18.00;54.69;99794.25;4996315;28;20093;-68
2023/04/18 10:46:45;;;;;;;0.20;0.20;;;;;;;18.14;53.70;99770.72;4995995;28;20022;-68
2023/04/18 10:49:15;;;;;;;0.20;0.20;;;;;;;18.71;52.34;99786.78;4996395;28;20030;-68
2023/04/18 10:51:46;;;;;;;0.20;0.20;;;;;;;18.50;51.62;99792.72;4995566;28;20145;-68
2023/04/18 10:54:21;;;;;;;0.20;0.20;;;;;;;18.64;50.98;99780.41;4995515;28;20030;-68
2023/04/18 10:56:55;;;;;;;0.20;0.20;;;;;;;18.37;50.83;99788.88;4996075;28;20034;-68
2023/04/18 10:59:22;;;;;;;0.20;0.20;;;;;;;18.52;51.86;99788.25;4997263;28;20066;-68
2023/04/18 11:01:53;;;;;;;0.20;0.20;;;;;;;18.20;52.67;99794.34;4996854;28;20022;-68
2023/04/18 11:04:23;;;;;;;0.20;0.20;;;;;;;18.29;52.92;99789.00;4995272;28;20036;-68
2023/04/18 11:06:57;;;;;;;0.20;0.20;;;;;;;18.20;52.19;99796.38;4997159;28;20026;-68
2023/04/18 11:09:23;;;;;;;0.20;0.20;;;;;;;18.03;52.55;99789.78;4995911;28;20060;-68
2023/04/18 11:12:06;;;;;;;0.20;0.20;;;;;;;17.98;54.69;99798.69;4995208;28;20477;-68
2023/04/18 11:14:48;;;;;;;0.20;0.20;;;;;;;17.50;62.31;99799.66;4995604;28;20365;-67
2023/04/18 11:17:17;;;;;;;0.20;0.20;;;;;;;16.89;66.64;99765.78;4995436;28;20117;-69
2023/04/18 11:19:43;;;;;;;0.20;0.20;;;;;;;17.05;68.71;99790.50;4995224;28;20038;-69
2023/04/18 11:22:08;;;;;;;0.20;0.20;;;;;;;16.86;70.66;99789.06;4995202;28;20035;-70
2023/04/18 11:24:36;;;;;;;0.20;0.20;;;;;;;16.67;71.22;99785.59;4995737;28;20041;-69
2023/04/18 11:27:08;;;;;;;0.20;0.20;;;;;;;16.86;70.69;99789.88;4995159;28;20030;-69
2023/04/18 11:29:33;;;;;;;0.20;0.20;;;;;;;16.83;70.85;99785.09;4994638;28;20080;-68
2023/04/18 11:32:08;;;;;;;0.20;0.20;;;;;;;16.65;72.90;99799.25;4995249;28;20053;-69
2023/04/18 11:34:34;;;;;;;0.20;0.20;;;;;;;16.76;73.49;99794.38;4996137;28;20030;-69
2023/04/18 11:37:04;;;;;;;0.20;0.20;;;;;;;16.49;78.21;99782.91;4994814;28;20113;-69